createdAt,value
2018-09-17T00:01:53.655Z,11.67
2018-09-17T00:04:21.732Z,11.64
2018-09-17T00:06:50.154Z,11.62
2018-09-17T00:09:18.178Z,11.67
2018-09-17T00:11:46.269Z,11.71
2018-09-17T00:14:15.624Z,11.68
2018-09-17T00:16:43.605Z,11.68
2018-09-17T00:19:11.584Z,11.61
2018-09-17T00:21:39.595Z,11.72
2018-09-17T00:24:07.678Z,11.67
2018-09-17T00:26:35.719Z,11.61
2018-09-17T00:29:03.868Z,11.52
2018-09-17T00:31:31.925Z,11.43
2018-09-17T00:33:59.990Z,11.32
2018-09-17T00:36:28.204Z,11.32
2018-09-17T00:38:56.399Z,11.31
2018-09-17T00:41:24.459Z,11.29
2018-09-17T00:43:52.439Z,11.27
2018-09-17T00:46:20.469Z,11.27
2018-09-17T00:48:48.634Z,11.27
2018-09-17T00:51:17.352Z,11.21
2018-09-17T00:53:45.338Z,11.16
2018-09-17T00:56:13.325Z,11.19
2018-09-17T00:58:41.416Z,11.18
2018-09-17T01:01:09.521Z,11.19
2018-09-17T01:03:37.487Z,11.09
2018-09-17T01:06:05.492Z,11.10
2018-09-17T01:08:33.580Z,11.03
2018-09-17T01:11:01.552Z,10.99
2018-09-17T01:13:29.778Z,10.98
2018-09-17T01:15:58.079Z,10.93
2018-09-17T01:18:26.196Z,10.89
2018-09-17T01:20:54.179Z,10.80
2018-09-17T01:23:22.147Z,10.80
2018-09-17T01:25:50.178Z,10.79
2018-09-17T01:28:18.250Z,10.69
2018-09-17T01:30:46.225Z,10.77
2018-09-17T01:33:14.188Z,10.83
2018-09-17T01:35:42.186Z,10.88
2018-09-17T01:38:10.259Z,10.74
2018-09-17T01:40:38.276Z,10.69
2018-09-17T01:43:06.562Z,10.73
2018-09-17T01:45:34.593Z,10.66
2018-09-17T01:48:02.616Z,10.62
2018-09-17T01:50:30.795Z,10.64
2018-09-17T01:52:58.834Z,10.69
2018-09-17T01:55:27.004Z,10.57
2018-09-17T01:57:55.346Z,10.57
2018-09-17T02:00:23.456Z,10.49
2018-09-17T02:02:51.473Z,10.45
2018-09-17T02:05:19.542Z,10.39
2018-09-17T02:07:47.622Z,10.35
2018-09-17T02:10:15.637Z,10.45
2018-09-17T02:12:43.621Z,10.43
2018-09-17T02:15:11.680Z,10.41
2018-09-17T02:17:39.782Z,10.47
2018-09-17T02:20:07.767Z,10.44
2018-09-17T02:22:35.865Z,10.44
2018-09-17T02:25:04.010Z,10.41
2018-09-17T02:27:32.267Z,10.39
2018-09-17T02:30:00.382Z,10.32
2018-09-17T02:32:28.486Z,10.33
2018-09-17T02:34:56.480Z,10.25
2018-09-17T02:37:24.680Z,10.20
2018-09-17T02:39:52.707Z,10.21
2018-09-17T02:42:20.701Z,10.13
2018-09-17T02:44:48.821Z,10.06
2018-09-17T02:47:16.887Z,10.03
2018-09-17T02:49:44.913Z,10.06
2018-09-17T02:52:12.947Z,10.12
2018-09-17T02:54:40.966Z,10.05
2018-09-17T02:57:09.145Z,10.03
2018-09-17T02:59:37.254Z,9.89
2018-09-17T03:02:05.427Z,9.88
2018-09-17T03:04:33.422Z,9.84
2018-09-17T03:07:01.476Z,9.85
2018-09-17T03:09:29.457Z,9.89
2018-09-17T03:11:57.575Z,9.95
2018-09-17T03:14:28.279Z,9.97
2018-09-17T03:17:11.684Z,10.02
2018-09-17T03:19:40.657Z,10.00
2018-09-17T03:22:09.075Z,10.02
2018-09-17T03:24:37.324Z,10.03
2018-09-17T03:27:05.661Z,10.01
2018-09-17T03:29:33.687Z,10.04
2018-09-17T03:32:01.734Z,10.01
2018-09-17T03:34:29.745Z,9.92
2018-09-17T03:36:57.906Z,9.83
2018-09-17T03:39:26.065Z,9.80
2018-09-17T03:41:54.121Z,9.68
2018-09-17T03:44:22.167Z,9.68
2018-09-17T03:46:50.231Z,9.71
2018-09-17T03:49:18.484Z,9.80
2018-09-17T03:51:46.572Z,9.80
2018-09-17T03:54:14.855Z,9.77
2018-09-17T03:59:22.982Z,9.85
2018-09-17T04:01:51.045Z,9.88
2018-09-17T04:04:19.066Z,9.80
2018-09-17T04:06:47.138Z,9.75
2018-09-17T04:09:15.315Z,9.66
2018-09-17T04:11:43.384Z,9.64
2018-09-17T04:14:11.428Z,9.60
2018-09-17T04:16:39.482Z,9.56
2018-09-17T04:19:07.633Z,9.44
2018-09-17T04:21:35.772Z,9.44
2018-09-17T04:24:03.881Z,9.48
2018-09-17T04:26:31.964Z,9.45
2018-09-17T04:29:00.214Z,9.44
2018-09-17T04:31:28.360Z,9.50
2018-09-17T04:33:56.472Z,9.55
2018-09-17T04:36:24.596Z,9.61
2018-09-17T04:38:53.038Z,9.63
2018-09-17T04:41:21.283Z,9.71
2018-09-17T04:43:49.430Z,9.81
2018-09-17T04:46:17.438Z,10.03
2018-09-17T04:48:45.606Z,10.25
2018-09-17T04:51:13.739Z,10.42
2018-09-17T04:53:41.764Z,10.44
2018-09-17T04:56:10.213Z,10.49
2018-09-17T04:58:39.046Z,10.78
2018-09-17T05:01:07.654Z,11.41
2018-09-17T05:03:36.196Z,12.19
2018-09-17T05:06:05.647Z,12.97
2018-09-17T05:08:34.279Z,13.45
2018-09-17T05:11:03.587Z,13.90
2018-09-17T05:13:33.008Z,14.38
2018-09-17T05:16:02.077Z,14.62
2018-09-17T05:18:30.261Z,14.50
2018-09-17T05:20:58.496Z,14.67
2018-09-17T05:23:26.669Z,14.58
2018-09-17T05:25:54.857Z,14.40
2018-09-17T05:28:23.155Z,14.05
2018-09-17T05:30:51.414Z,14.00
2018-09-17T05:33:19.659Z,13.82
2018-09-17T05:35:47.867Z,13.84
2018-09-17T05:38:16.078Z,13.99
2018-09-17T05:40:44.705Z,13.89
2018-09-17T05:43:12.908Z,13.85
2018-09-17T05:45:41.056Z,13.66
2018-09-17T05:48:09.502Z,13.51
2018-09-17T05:50:37.791Z,13.57
2018-09-17T05:53:06.314Z,13.60
2018-09-17T05:55:34.585Z,13.90
2018-09-17T05:58:02.812Z,14.36
2018-09-17T06:00:30.966Z,14.76
2018-09-17T06:02:59.617Z,15.02
2018-09-17T06:05:28.140Z,15.79
2018-09-17T06:07:56.458Z,15.46
2018-09-17T06:10:24.716Z,15.81
2018-09-17T06:12:53.149Z,16.27
2018-09-17T06:15:21.283Z,16.15
2018-09-17T06:17:49.701Z,16.22
2018-09-17T06:20:18.065Z,16.32
2018-09-17T06:22:46.213Z,16.57
2018-09-17T06:25:14.413Z,16.69
2018-09-17T06:27:42.758Z,16.90
2018-09-17T06:30:11.115Z,17.18
2018-09-17T06:32:39.507Z,17.15
2018-09-17T06:35:07.705Z,17.23
2018-09-17T06:37:35.969Z,17.24
2018-09-17T06:40:04.205Z,17.53
2018-09-17T06:42:32.340Z,17.81
2018-09-17T06:45:00.700Z,17.86
2018-09-17T06:47:29.017Z,17.78
2018-09-17T06:49:57.201Z,17.94
2018-09-17T06:52:25.355Z,17.93
2018-09-17T06:54:53.595Z,18.03
2018-09-17T06:57:21.737Z,17.74
2018-09-17T06:59:49.773Z,17.88
2018-09-17T07:02:17.912Z,18.31
2018-09-17T07:04:46.064Z,18.41
2018-09-17T07:07:14.299Z,18.33
2018-09-17T07:09:42.513Z,18.59
2018-09-17T07:12:10.637Z,18.72
2018-09-17T07:14:39.006Z,18.99
2018-09-17T07:17:07.307Z,18.90
2018-09-17T07:19:35.565Z,18.55
2018-09-17T07:22:03.736Z,19.05
2018-09-17T07:24:31.908Z,19.08
2018-09-17T07:27:00.531Z,19.28
2018-09-17T07:29:28.814Z,19.50
2018-09-17T07:31:57.106Z,19.52
2018-09-17T07:34:25.423Z,20.01
2018-09-17T07:36:53.653Z,20.02
2018-09-17T07:39:22.142Z,20.37
2018-09-17T07:41:51.548Z,20.51
2018-09-17T07:44:20.387Z,20.52
2018-09-17T07:46:48.858Z,20.42
2018-09-17T07:49:17.258Z,20.95
2018-09-17T07:51:45.329Z,21.15
2018-09-17T07:54:13.754Z,21.41
2018-09-17T07:56:41.964Z,21.51
2018-09-17T07:59:11.497Z,21.52
2018-09-17T08:01:39.640Z,21.77
2018-09-17T08:04:07.729Z,21.68
2018-09-17T08:06:36.136Z,21.88
2018-09-17T08:09:08.930Z,21.31
2018-09-17T08:11:37.163Z,21.59
2018-09-17T08:14:05.594Z,21.45
2018-09-17T08:16:33.840Z,21.81
2018-09-17T08:19:02.043Z,21.72
2018-09-17T08:21:30.152Z,22.02
2018-09-17T08:23:58.419Z,22.33
2018-09-17T08:26:26.545Z,22.26
2018-09-17T08:28:54.680Z,22.63
2018-09-17T08:31:23.113Z,22.55
2018-09-17T08:33:51.329Z,22.79
2018-09-17T08:36:19.565Z,22.76
2018-09-17T08:38:47.719Z,22.51
2018-09-17T08:41:15.861Z,21.99
2018-09-17T08:43:44.012Z,22.23
2018-09-17T08:46:12.143Z,22.30
2018-09-17T08:48:40.268Z,22.63
2018-09-17T08:51:08.496Z,22.75
2018-09-17T08:53:36.765Z,23.43
2018-09-17T08:57:14.847Z,23.38
2018-09-17T08:59:46.921Z,23.45
2018-09-17T09:02:15.302Z,23.36
2018-09-17T09:04:49.928Z,23.58
2018-09-17T09:07:23.854Z,23.83
2018-09-17T09:09:55.401Z,24.22
2018-09-17T09:12:30.941Z,24.48
2018-09-17T09:15:04.841Z,24.80
2018-09-17T09:17:33.036Z,24.43
2018-09-17T09:20:01.349Z,23.76
2018-09-17T09:22:29.484Z,23.96
2018-09-17T09:24:57.776Z,23.91
2018-09-17T09:27:25.951Z,24.15
2018-09-17T09:29:54.100Z,23.89
2018-09-17T09:32:22.380Z,24.42
2018-09-17T09:34:51.039Z,24.66
2018-09-17T09:37:19.421Z,24.69
2018-09-17T09:39:48.115Z,25.08
2018-09-17T09:42:16.298Z,25.30
2018-09-17T09:44:50.012Z,24.92
2018-09-17T09:47:18.110Z,24.67
2018-09-17T09:49:51.859Z,25.18
2018-09-17T10:30:41.801Z,27.16
2018-09-17T10:33:10.039Z,27.31
2018-09-17T10:35:38.201Z,26.87
2018-09-17T10:38:06.328Z,26.17
2018-09-17T10:40:34.404Z,25.46
2018-09-17T10:43:02.740Z,25.99
2018-09-17T10:45:31.538Z,26.64
2018-09-17T10:48:02.481Z,26.62
2018-09-17T10:50:31.235Z,26.93
2018-09-17T10:52:59.866Z,27.31
2018-09-17T10:55:28.334Z,27.24
2018-09-17T10:57:56.783Z,27.00
2018-09-17T11:00:25.449Z,27.05
2018-09-17T11:02:53.997Z,27.30
2018-09-17T11:05:22.735Z,27.11
2018-09-17T11:07:51.308Z,26.73
2018-09-17T11:10:19.986Z,26.61
2018-09-17T11:12:48.759Z,26.66
2018-09-17T11:20:48.436Z,26.58
2018-09-17T11:23:16.985Z,26.62
2018-09-17T11:25:45.630Z,26.61
2018-09-17T11:28:14.258Z,26.46
2018-09-17T11:30:43.371Z,26.24
2018-09-17T11:33:13.958Z,26.61
2018-09-17T11:35:43.175Z,26.86
2018-09-17T11:38:12.183Z,26.37
2018-09-17T11:40:40.875Z,25.68
2018-09-17T11:43:10.550Z,25.76
2018-09-17T11:45:39.396Z,26.13
2018-09-17T11:48:08.435Z,26.45
2018-09-17T11:50:37.656Z,25.99
2018-09-17T11:53:06.581Z,25.88
2018-09-17T11:55:35.832Z,25.90
2018-09-17T11:58:05.401Z,26.04
2018-09-17T12:00:39.831Z,26.36
2018-09-17T12:03:14.030Z,26.71
2018-09-17T12:05:49.148Z,26.74
2018-09-17T12:08:19.201Z,27.08
2018-09-17T12:10:48.114Z,26.60
2018-09-17T12:13:18.221Z,26.48
2018-09-17T12:15:46.851Z,26.53
2018-09-17T12:18:15.769Z,26.32
2018-09-17T12:20:44.695Z,26.21
2018-09-17T12:23:14.052Z,26.55
2018-09-17T12:25:42.737Z,26.50
2018-09-17T12:28:12.184Z,26.68
2018-09-17T12:30:40.934Z,26.58
2018-09-17T12:33:10.292Z,26.22
2018-09-17T12:35:40.389Z,26.20
2018-09-17T12:38:10.419Z,26.20
2018-09-17T12:40:38.989Z,26.35
2018-09-17T12:43:07.929Z,25.71
2018-09-17T12:45:36.711Z,25.19
2018-09-17T12:48:05.905Z,24.85
2018-09-17T12:50:34.630Z,24.68
2018-09-17T12:53:03.554Z,25.01
2018-09-17T12:55:32.648Z,25.49
2018-09-17T12:58:01.320Z,25.96
2018-09-17T13:00:30.378Z,25.90
2018-09-17T13:02:58.996Z,25.87
2018-09-17T13:05:28.740Z,25.64
2018-09-17T13:07:57.526Z,25.27
2018-09-17T13:10:26.306Z,25.16
2018-09-17T13:12:55.045Z,25.10
2018-09-17T13:15:23.583Z,25.03
2018-09-17T13:17:52.143Z,25.06
2018-09-17T13:20:20.975Z,25.00
2018-09-17T13:22:49.600Z,24.87
2018-09-17T13:25:18.185Z,25.00
2018-09-17T13:27:47.161Z,24.90
2018-09-17T13:30:17.107Z,24.87
2018-09-17T13:32:45.681Z,24.74
2018-09-17T13:35:14.400Z,24.51
2018-09-17T13:37:42.899Z,24.45
2018-09-17T13:40:11.684Z,24.32
2018-09-17T13:42:40.208Z,24.42
2018-09-17T13:45:09.463Z,24.59
2018-09-17T13:47:38.771Z,24.84
2018-09-17T13:50:07.624Z,24.98
2018-09-17T13:52:36.283Z,25.10
2018-09-17T13:55:05.140Z,25.34
2018-09-17T13:57:33.833Z,25.40
2018-09-17T14:00:02.981Z,25.50
2018-09-17T14:02:31.796Z,25.58
2018-09-17T14:05:00.443Z,25.57
2018-09-17T14:07:29.116Z,25.37
2018-09-17T14:09:57.919Z,25.30
2018-09-17T14:12:27.126Z,25.38
2018-09-17T14:14:56.232Z,25.52
2018-09-17T14:17:25.348Z,25.48
2018-09-17T14:19:53.970Z,25.34
2018-09-17T14:22:22.320Z,25.36
2018-09-17T14:24:50.627Z,25.38
2018-09-17T14:27:19.078Z,25.56
2018-09-17T14:29:47.814Z,25.59
2018-09-17T14:33:23.118Z,25.51
2018-09-17T14:35:51.433Z,25.39
2018-09-17T14:38:19.784Z,25.32
2018-09-17T14:40:48.268Z,25.28
2018-09-17T14:43:17.208Z,25.28
2018-09-17T14:45:45.465Z,25.11
2018-09-17T14:48:13.863Z,25.09
2018-09-17T14:50:42.114Z,24.98
2018-09-17T14:53:10.431Z,25.00
2018-09-17T14:55:38.513Z,24.78
2018-09-17T14:58:06.839Z,24.78
2018-09-17T15:00:35.301Z,24.58
2018-09-17T15:03:03.421Z,24.14
2018-09-17T15:05:31.866Z,24.15
2018-09-17T15:08:00.310Z,24.34
2018-09-17T15:10:28.851Z,24.10
2018-09-17T15:12:57.329Z,24.04
2018-09-17T15:15:25.569Z,24.11
2018-09-17T15:17:53.809Z,24.00
2018-09-17T15:20:22.273Z,23.69
2018-09-17T15:22:50.366Z,23.78
2018-09-17T15:25:18.553Z,23.87
2018-09-17T15:27:47.068Z,23.46
2018-09-17T15:30:15.310Z,23.16
2018-09-17T15:32:43.760Z,23.06
2018-09-17T15:35:12.110Z,22.92
2018-09-17T15:37:40.298Z,22.83
2018-09-17T15:40:08.917Z,22.79
2018-09-17T15:42:37.110Z,22.66
2018-09-17T15:45:05.369Z,22.53
2018-09-17T15:47:33.522Z,22.42
2018-09-17T15:50:01.970Z,22.29
2018-09-17T15:52:30.101Z,22.11
2018-09-17T15:54:58.329Z,21.84
2018-09-17T15:57:26.807Z,21.58
2018-09-17T15:59:55.086Z,21.49
2018-09-17T16:02:23.498Z,21.34
2018-09-17T16:04:51.831Z,21.19
2018-09-17T16:07:20.066Z,20.97
2018-09-17T16:09:48.346Z,20.83
2018-09-17T16:12:16.611Z,20.71
2018-09-17T16:14:44.671Z,20.37
2018-09-17T16:17:12.820Z,20.26
2018-09-17T16:19:41.168Z,20.00
2018-09-17T16:22:09.306Z,19.78
2018-09-17T16:24:38.064Z,19.78
2018-09-17T16:27:06.831Z,19.65
2018-09-17T16:29:35.137Z,19.67
2018-09-17T16:32:03.441Z,19.53
2018-09-17T16:34:31.542Z,19.43
2018-09-17T16:36:59.756Z,19.34
2018-09-17T16:39:28.053Z,19.33
2018-09-17T16:41:56.304Z,19.24
2018-09-17T16:44:24.694Z,19.17
2018-09-17T16:46:53.202Z,19.13
2018-09-17T16:49:21.550Z,19.24
2018-09-17T16:51:50.039Z,19.66
2018-09-17T16:54:18.316Z,19.47
2018-09-17T16:56:46.561Z,19.62
2018-09-17T16:59:15.065Z,19.29
2018-09-17T17:01:43.274Z,19.16
2018-09-17T17:04:11.541Z,18.71
2018-09-17T17:06:40.760Z,18.65
2018-09-17T17:09:10.224Z,18.58
2018-09-17T17:11:38.507Z,18.33
2018-09-17T17:14:06.675Z,18.16
2018-09-17T17:16:34.959Z,18.08
2018-09-17T17:19:03.637Z,18.01
2018-09-17T17:21:32.443Z,17.83
2018-09-17T17:24:00.999Z,17.68
2018-09-17T17:26:29.268Z,17.59
2018-09-17T17:28:57.899Z,17.55
2018-09-17T17:31:26.214Z,17.50
2018-09-17T17:33:54.363Z,17.46
2018-09-17T17:36:23.194Z,17.66
2018-09-17T17:38:51.625Z,17.61
2018-09-17T17:41:19.968Z,17.55
2018-09-17T17:43:48.335Z,17.46
2018-09-17T17:46:16.868Z,17.49
2018-09-17T17:48:45.068Z,17.49
2018-09-17T17:51:13.374Z,17.35
2018-09-17T17:53:42.425Z,17.14
2018-09-17T17:56:10.713Z,16.99
2018-09-17T17:58:39.162Z,16.95
2018-09-17T18:01:07.850Z,16.87
2018-09-17T18:03:36.304Z,16.79
2018-09-17T18:06:04.605Z,16.77
2018-09-17T18:08:32.831Z,16.64
2018-09-17T18:11:01.159Z,16.48
2018-09-17T18:13:29.650Z,16.53
2018-09-17T18:15:58.206Z,16.48
2018-09-17T18:18:26.732Z,16.49
2018-09-17T18:20:55.609Z,16.44
2018-09-17T18:23:24.194Z,16.67
2018-09-17T18:25:52.577Z,16.90
2018-09-17T18:28:20.962Z,16.86
2018-09-17T18:30:49.405Z,16.97
2018-09-17T18:33:17.878Z,17.20
2018-09-17T18:35:46.236Z,17.17
2018-09-17T18:38:14.556Z,16.96
2018-09-17T18:40:42.757Z,16.77
2018-09-17T18:43:11.104Z,16.81
2018-09-17T18:45:39.421Z,16.90
2018-09-17T18:48:07.574Z,16.59
2018-09-17T18:50:35.791Z,16.56
2018-09-17T18:53:04.019Z,16.53
2018-09-17T18:55:32.355Z,16.35
2018-09-17T18:58:01.042Z,16.51
2018-09-17T19:00:29.289Z,16.99
2018-09-17T19:02:57.441Z,16.92
2018-09-17T19:05:25.624Z,17.00
2018-09-17T19:07:53.948Z,16.49
2018-09-17T19:10:22.367Z,16.85
2018-09-17T19:12:50.679Z,16.64
2018-09-17T19:15:24.420Z,16.59
2018-09-17T19:17:52.631Z,16.32
2018-09-17T19:20:21.479Z,16.23
2018-09-17T19:22:55.238Z,16.11
2018-09-17T19:25:23.392Z,16.06
2018-09-17T19:27:57.279Z,15.98
2018-09-17T19:30:25.917Z,15.91
2018-09-17T19:32:54.681Z,15.79
2018-09-17T19:35:23.050Z,15.86
2018-09-17T19:37:56.739Z,15.70
2018-09-17T20:17:32.289Z,14.82
2018-09-17T20:20:00.498Z,14.83
2018-09-17T20:22:28.688Z,14.79
2018-09-17T20:24:56.736Z,14.78
2018-09-17T20:27:24.829Z,14.78
2018-09-17T20:29:53.120Z,14.79
2018-09-17T20:32:21.268Z,14.72
2018-09-17T20:34:49.561Z,14.64
2018-09-17T20:37:17.882Z,14.63
2018-09-17T20:39:46.362Z,14.64
2018-09-17T20:42:14.658Z,14.58
2018-09-17T20:44:42.897Z,14.50
2018-09-17T20:47:11.229Z,14.51
2018-09-17T20:49:39.684Z,14.51
2018-09-17T20:52:08.019Z,14.52
2018-09-17T20:54:36.303Z,14.51
2018-09-17T20:57:04.451Z,14.50
2018-09-17T20:59:32.742Z,14.47
2018-09-17T21:31:18.397Z,14.38
2018-09-17T21:33:46.599Z,14.36
2018-09-17T21:36:14.574Z,14.29
2018-09-17T21:38:42.647Z,14.26
2018-09-17T21:41:10.826Z,14.21
2018-09-17T21:43:38.895Z,14.14
2018-09-17T21:46:07.267Z,14.16
2018-09-17T21:48:35.315Z,14.07
2018-09-17T21:51:03.477Z,14.03
2018-09-17T21:53:31.640Z,14.00
2018-09-17T21:55:59.783Z,13.99
2018-09-17T21:58:28.042Z,13.94
2018-09-17T22:01:02.356Z,13.92
2018-09-17T22:03:32.152Z,13.92
2018-09-17T22:06:00.319Z,13.90
2018-09-17T22:08:28.877Z,13.89
2018-09-17T22:10:57.174Z,13.88
2018-09-17T22:13:25.358Z,13.90
2018-09-17T22:15:53.468Z,13.90
2018-09-17T22:18:21.522Z,13.92
2018-09-17T22:20:49.690Z,13.94
2018-09-17T22:23:17.917Z,13.93
2018-09-17T22:25:46.112Z,13.97
2018-09-17T22:28:14.224Z,13.96
2018-09-17T22:30:42.402Z,13.91
2018-09-17T22:33:10.673Z,13.93
2018-09-17T22:35:39.148Z,13.93
2018-09-17T22:38:07.461Z,13.87
2018-09-17T22:40:35.666Z,13.86
2018-09-17T22:43:04.101Z,13.84
2018-09-17T22:45:32.268Z,13.77
2018-09-17T22:48:00.369Z,13.80
2018-09-17T22:50:28.548Z,13.75
2018-09-17T22:52:56.656Z,13.74
2018-09-17T22:55:24.747Z,13.66
2018-09-17T22:57:53.039Z,13.59
2018-09-17T23:00:21.309Z,13.60
2018-09-17T23:02:49.512Z,13.52
2018-09-17T23:05:17.805Z,13.52
2018-09-17T23:07:45.973Z,13.44
2018-09-17T23:10:14.257Z,13.47
2018-09-17T23:12:42.595Z,13.39
2018-09-17T23:15:10.791Z,13.31
2018-09-17T23:17:38.900Z,13.26
2018-09-17T23:20:07.226Z,13.21
2018-09-17T23:22:35.268Z,13.20
2018-09-17T23:25:03.491Z,13.15
2018-09-17T23:27:31.586Z,13.09
2018-09-17T23:29:59.697Z,13.04
2018-09-17T23:32:27.896Z,13.09
2018-09-17T23:34:56.018Z,13.06
2018-09-17T23:37:24.197Z,13.09
2018-09-17T23:39:52.526Z,12.96
2018-09-17T23:42:20.681Z,12.96
2018-09-17T23:44:48.888Z,12.91
2018-09-17T23:47:17.024Z,12.86
2018-09-17T23:49:45.366Z,12.80
2018-09-17T23:52:13.438Z,12.79
2018-09-17T23:54:41.591Z,12.93
2018-09-17T23:57:09.838Z,12.92
2018-09-17T23:59:37.911Z,12.88
